sensor_id;sensor_type;location;lat;lon;timestamp;P1;durP1;ratioP1;P2;durP2;ratioP2
75135;SDS011;63707;52.212;9.540;2023-04-24T00:01:45;2.35;;;1.20;;
75135;SDS011;63707;52.212;9.540;2023-04-24T00:04:11;2.28;;;1.20;;
75135;SDS011;63707;52.212;9.540;2023-04-24T00:06:39;2.92;;;1.02;;
75135;SDS011;63707;52.212;9.540;2023-04-24T00:09:07;2.97;;;1.33;;
75135;SDS011;63707;52.212;9.540;2023-04-24T00:11:35;1.30;;;0.93;;
75135;SDS011;63707;52.212;9.540;2023-04-24T00:14:00;1.92;;;1.10;;
75135;SDS011;63707;52.212;9.540;2023-04-24T00:16:25;1.48;;;1.13;;
75135;SDS011;63707;52.212;9.540;2023-04-24T00:18:51;4.45;;;1.40;;
75135;SDS011;63707;52.212;9.540;2023-04-24T00:21:19;3.05;;;1.10;;
75135;SDS011;63707;52.212;9.540;2023-04-24T00:23:44;2.05;;;1.25;;
75135;SDS011;63707;52.212;9.540;2023-04-24T00:26:09;1.42;;;1.00;;
75135;SDS011;63707;52.212;9.540;2023-04-24T00:28:35;1.80;;;1.27;;
75135;SDS011;63707;52.212;9.540;2023-04-24T00:31:00;2.28;;;1.20;;
75135;SDS011;63707;52.212;9.540;2023-04-24T00:33:25;1.63;;;1.00;;
75135;SDS011;63707;52.212;9.540;2023-04-24T00:35:51;1.60;;;0.88;;
75135;SDS011;63707;52.212;9.540;2023-04-24T00:38:17;3.40;;;1.20;;
75135;SDS011;63707;52.212;9.540;2023-04-24T00:40:43;1.58;;;1.00;;
75135;SDS011;63707;52.212;9.540;2023-04-24T00:43:08;1.70;;;1.10;;
75135;SDS011;63707;52.212;9.540;2023-04-24T00:45:33;1.70;;;0.90;;
75135;SDS011;63707;52.212;9.540;2023-04-24T00:47:59;2.03;;;0.90;;
75135;SDS011;63707;52.212;9.540;2023-04-24T00:50:25;1.00;;;0.90;;
75135;SDS011;63707;52.212;9.540;2023-04-24T00:52:51;1.45;;;0.98;;
75135;SDS011;63707;52.212;9.540;2023-04-24T00:55:18;1.63;;;1.08;;
75135;SDS011;63707;52.212;9.540;2023-04-24T00:57:43;3.03;;;1.30;;
75135;SDS011;63707;52.212;9.540;2023-04-24T01:00:09;1.52;;;0.90;;
75135;SDS011;63707;52.212;9.540;2023-04-24T01:02:38;1.45;;;1.00;;
75135;SDS011;63707;52.212;9.540;2023-04-24T01:05:05;1.77;;;1.00;;
75135;SDS011;63707;52.212;9.540;2023-04-24T01:07:31;3.28;;;1.25;;
75135;SDS011;63707;52.212;9.540;2023-04-24T01:09:56;1.30;;;0.90;;
75135;SDS011;63707;52.212;9.540;2023-04-24T01:12:23;2.63;;;0.77;;
75135;SDS011;63707;52.212;9.540;2023-04-24T01:14:48;1.40;;;0.90;;
75135;SDS011;63707;52.212;9.540;2023-04-24T01:17:14;2.15;;;1.00;;
75135;SDS011;63707;52.212;9.540;2023-04-24T01:19:40;1.95;;;1.00;;
75135;SDS011;63707;52.212;9.540;2023-04-24T01:22:10;2.63;;;1.00;;
75135;SDS011;63707;52.212;9.540;2023-04-24T01:24:35;2.38;;;1.08;;
75135;SDS011;63707;52.212;9.540;2023-04-24T01:27:01;1.50;;;0.90;;
75135;SDS011;63707;52.212;9.540;2023-04-24T01:29:26;2.17;;;0.88;;
75135;SDS011;63707;52.212;9.540;2023-04-24T01:31:52;1.50;;;1.08;;
75135;SDS011;63707;52.212;9.540;2023-04-24T01:34:17;1.67;;;0.90;;
75135;SDS011;63707;52.212;9.540;2023-04-24T01:36:42;1.60;;;1.10;;
75135;SDS011;63707;52.212;9.540;2023-04-24T01:39:09;3.88;;;1.00;;
75135;SDS011;63707;52.212;9.540;2023-04-24T01:41:35;3.28;;;0.90;;
75135;SDS011;63707;52.212;9.540;2023-04-24T01:44:00;3.47;;;0.98;;
75135;SDS011;63707;52.212;9.540;2023-04-24T01:46:26;1.42;;;0.85;;
75135;SDS011;63707;52.212;9.540;2023-04-24T01:48:51;3.17;;;1.20;;
75135;SDS011;63707;52.212;9.540;2023-04-24T01:51:17;1.20;;;1.10;;
75135;SDS011;63707;52.212;9.540;2023-04-24T01:53:42;1.77;;;1.27;;
75135;SDS011;63707;52.212;9.540;2023-04-24T01:56:09;3.33;;;1.27;;
75135;SDS011;63707;52.212;9.540;2023-04-24T01:58:34;2.60;;;1.20;;
75135;SDS011;63707;52.212;9.540;2023-04-24T02:01:00;3.13;;;1.25;;
75135;SDS011;63707;52.212;9.540;2023-04-24T02:03:25;2.25;;;1.33;;
75135;SDS011;63707;52.212;9.540;2023-04-24T02:05:51;1.38;;;1.10;;
75135;SDS011;63707;52.212;9.540;2023-04-24T02:08:16;1.80;;;1.30;;
75135;SDS011;63707;52.212;9.540;2023-04-24T02:10:41;3.72;;;1.15;;
75135;SDS011;63707;52.212;9.540;2023-04-24T02:13:08;1.83;;;1.20;;
75135;SDS011;63707;52.212;9.540;2023-04-24T02:15:33;1.27;;;1.10;;
75135;SDS011;63707;52.212;9.540;2023-04-24T02:17:58;2.67;;;1.20;;
75135;SDS011;63707;52.212;9.540;2023-04-24T02:20:24;1.55;;;1.20;;
75135;SDS011;63707;52.212;9.540;2023-04-24T02:22:49;1.33;;;1.00;;
75135;SDS011;63707;52.212;9.540;2023-04-24T02:25:14;2.53;;;1.20;;
75135;SDS011;63707;52.212;9.540;2023-04-24T02:27:40;1.90;;;1.10;;
75135;SDS011;63707;52.212;9.540;2023-04-24T02:30:07;1.90;;;0.90;;
75135;SDS011;63707;52.212;9.540;2023-04-24T02:32:33;1.52;;;1.00;;
75135;SDS011;63707;52.212;9.540;2023-04-24T02:34:59;1.58;;;1.00;;
75135;SDS011;63707;52.212;9.540;2023-04-24T02:37:24;1.38;;;0.88;;
75135;SDS011;63707;52.212;9.540;2023-04-24T02:39:49;1.35;;;0.90;;
75135;SDS011;63707;52.212;9.540;2023-04-24T02:42:15;2.75;;;0.93;;
75135;SDS011;63707;52.212;9.540;2023-04-24T02:44:40;3.75;;;1.10;;
75135;SDS011;63707;52.212;9.540;2023-04-24T02:47:07;2.10;;;1.15;;
75135;SDS011;63707;52.212;9.540;2023-04-24T02:49:33;2.65;;;0.98;;
75135;SDS011;63707;52.212;9.540;2023-04-24T02:51:58;2.08;;;1.10;;
75135;SDS011;63707;52.212;9.540;2023-04-24T02:54:24;1.48;;;1.20;;
75135;SDS011;63707;52.212;9.540;2023-04-24T02:56:49;2.75;;;1.13;;
75135;SDS011;63707;52.212;9.540;2023-04-24T02:59:14;1.65;;;1.20;;
75135;SDS011;63707;52.212;9.540;2023-04-24T03:01:40;3.13;;;1.10;;
75135;SDS011;63707;52.212;9.540;2023-04-24T03:04:06;1.77;;;0.80;;
75135;SDS011;63707;52.212;9.540;2023-04-24T03:06:32;1.40;;;1.02;;
75135;SDS011;63707;52.212;9.540;2023-04-24T03:08:57;1.10;;;1.00;;
75135;SDS011;63707;52.212;9.540;2023-04-24T03:11:23;1.00;;;0.90;;
75135;SDS011;63707;52.212;9.540;2023-04-24T03:13:48;2.15;;;0.90;;
75135;SDS011;63707;52.212;9.540;2023-04-24T03:16:13;1.80;;;0.90;;
75135;SDS011;63707;52.212;9.540;2023-04-24T03:18:39;3.05;;;1.10;;
75135;SDS011;63707;52.212;9.540;2023-04-24T03:21:06;1.58;;;1.00;;
75135;SDS011;63707;52.212;9.540;2023-04-24T03:23:31;1.92;;;0.90;;
75135;SDS011;63707;52.212;9.540;2023-04-24T03:25:56;1.92;;;0.90;;
75135;SDS011;63707;52.212;9.540;2023-04-24T03:28:21;1.50;;;0.90;;
75135;SDS011;63707;52.212;9.540;2023-04-24T03:30:47;3.22;;;0.90;;
75135;SDS011;63707;52.212;9.540;2023-04-24T03:33:12;1.50;;;1.02;;
75135;SDS011;63707;52.212;9.540;2023-04-24T03:35:37;1.48;;;1.10;;
75135;SDS011;63707;52.212;9.540;2023-04-24T03:38:04;2.70;;;0.82;;
75135;SDS011;63707;52.212;9.540;2023-04-24T03:40:29;2.35;;;0.80;;
75135;SDS011;63707;52.212;9.540;2023-04-24T03:42:55;1.42;;;0.80;;
75135;SDS011;63707;52.212;9.540;2023-04-24T03:45:20;3.67;;;0.90;;
75135;SDS011;63707;52.212;9.540;2023-04-24T03:47:45;0.82;;;0.80;;
75135;SDS011;63707;52.212;9.540;2023-04-24T03:50:11;1.30;;;0.90;;
75135;SDS011;63707;52.212;9.540;2023-04-24T03:52:36;1.17;;;0.88;;
75135;SDS011;63707;52.212;9.540;2023-04-24T03:55:03;1.33;;;0.90;;
75135;SDS011;63707;52.212;9.540;2023-04-24T03:57:28;1.40;;;0.90;;
75135;SDS011;63707;52.212;9.540;2023-04-24T03:59:53;1.70;;;0.88;;
75135;SDS011;63707;52.212;9.540;2023-04-24T04:02:19;1.25;;;0.80;;
75135;SDS011;63707;52.212;9.540;2023-04-24T04:04:44;2.60;;;0.80;;
75135;SDS011;63707;52.212;9.540;2023-04-24T04:07:10;2.20;;;1.10;;
75135;SDS011;63707;52.212;9.540;2023-04-24T04:09:36;2.38;;;1.02;;
75135;SDS011;63707;52.212;9.540;2023-04-24T04:12:03;2.88;;;0.93;;
75135;SDS011;63707;52.212;9.540;2023-04-24T04:14:28;1.60;;;0.88;;
75135;SDS011;63707;52.212;9.540;2023-04-24T04:16:54;1.13;;;0.80;;
75135;SDS011;63707;52.212;9.540;2023-04-24T04:19:19;1.58;;;0.80;;
75135;SDS011;63707;52.212;9.540;2023-04-24T04:21:45;2.95;;;1.10;;
75135;SDS011;63707;52.212;9.540;2023-04-24T04:24:10;2.83;;;1.10;;
75135;SDS011;63707;52.212;9.540;2023-04-24T04:26:36;2.00;;;0.73;;
75135;SDS011;63707;52.212;9.540;2023-04-24T04:29:04;2.10;;;0.90;;
75135;SDS011;63707;52.212;9.540;2023-04-24T04:31:29;1.42;;;0.80;;
75135;SDS011;63707;52.212;9.540;2023-04-24T04:33:55;1.45;;;1.00;;
75135;SDS011;63707;52.212;9.540;2023-04-24T04:36:20;2.63;;;0.93;;
75135;SDS011;63707;52.212;9.540;2023-04-24T04:38:46;1.33;;;1.02;;
75135;SDS011;63707;52.212;9.540;2023-04-24T04:41:11;2.70;;;1.20;;
75135;SDS011;63707;52.212;9.540;2023-04-24T04:43:37;1.70;;;1.13;;
75135;SDS011;63707;52.212;9.540;2023-04-24T04:46:05;1.85;;;1.00;;
75135;SDS011;63707;52.212;9.540;2023-04-24T04:48:33;3.63;;;1.02;;
75135;SDS011;63707;52.212;9.540;2023-04-24T04:50:58;2.15;;;0.90;;
75135;SDS011;63707;52.212;9.540;2023-04-24T04:53:24;3.20;;;0.80;;
75135;SDS011;63707;52.212;9.540;2023-04-24T04:55:49;1.67;;;1.05;;
75135;SDS011;63707;52.212;9.540;2023-04-24T04:58:14;1.92;;;0.77;;
75135;SDS011;63707;52.212;9.540;2023-04-24T05:00:40;1.60;;;1.20;;
75135;SDS011;63707;52.212;9.540;2023-04-24T05:03:07;2.38;;;1.08;;
75135;SDS011;63707;52.212;9.540;2023-04-24T05:05:33;3.75;;;1.27;;
75135;SDS011;63707;52.212;9.540;2023-04-24T05:07:58;6.10;;;1.08;;
75135;SDS011;63707;52.212;9.540;2023-04-24T05:10:23;2.47;;;1.40;;
75135;SDS011;63707;52.212;9.540;2023-04-24T05:12:49;1.80;;;1.08;;
75135;SDS011;63707;52.212;9.540;2023-04-24T05:15:14;2.03;;;1.20;;
75135;SDS011;63707;52.212;9.540;2023-04-24T05:17:40;1.70;;;1.23;;
75135;SDS011;63707;52.212;9.540;2023-04-24T05:20:07;2.85;;;1.20;;
75135;SDS011;63707;52.212;9.540;2023-04-24T05:22:33;1.83;;;1.30;;
75135;SDS011;63707;52.212;9.540;2023-04-24T05:24:58;1.65;;;1.30;;
75135;SDS011;63707;52.212;9.540;2023-04-24T05:27:23;1.90;;;1.48;;
75135;SDS011;63707;52.212;9.540;2023-04-24T05:29:49;3.10;;;1.73;;
75135;SDS011;63707;52.212;9.540;2023-04-24T05:32:14;2.38;;;1.65;;
75135;SDS011;63707;52.212;9.540;2023-04-24T05:34:40;2.35;;;1.42;;
75135;SDS011;63707;52.212;9.540;2023-04-24T05:37:06;2.28;;;1.52;;
75135;SDS011;63707;52.212;9.540;2023-04-24T05:39:34;5.38;;;1.50;;
75135;SDS011;63707;52.212;9.540;2023-04-24T05:42:00;2.28;;;1.55;;
75135;SDS011;63707;52.212;9.540;2023-04-24T05:44:26;3.28;;;1.60;;
75135;SDS011;63707;52.212;9.540;2023-04-24T05:46:51;2.65;;;1.30;;
75135;SDS011;63707;52.212;9.540;2023-04-24T05:49:16;2.20;;;1.20;;
75135;SDS011;63707;52.212;9.540;2023-04-24T05:51:42;2.50;;;1.73;;
75135;SDS011;63707;52.212;9.540;2023-04-24T05:54:08;3.60;;;1.50;;
75135;SDS011;63707;52.212;9.540;2023-04-24T05:56:35;2.75;;;1.65;;
75135;SDS011;63707;52.212;9.540;2023-04-24T05:59:00;2.90;;;2.00;;
75135;SDS011;63707;52.212;9.540;2023-04-24T06:01:26;2.00;;;1.60;;
75135;SDS011;63707;52.212;9.540;2023-04-24T06:03:51;2.42;;;1.83;;
75135;SDS011;63707;52.212;9.540;2023-04-24T06:06:17;3.03;;;1.80;;
75135;SDS011;63707;52.212;9.540;2023-04-24T06:08:44;2.28;;;1.73;;
75135;SDS011;63707;52.212;9.540;2023-04-24T06:11:11;2.63;;;1.83;;
75135;SDS011;63707;52.212;9.540;2023-04-24T06:13:37;2.80;;;1.75;;
75135;SDS011;63707;52.212;9.540;2023-04-24T06:16:02;3.72;;;2.00;;
75135;SDS011;63707;52.212;9.540;2023-04-24T06:18:27;3.35;;;1.80;;
75135;SDS011;63707;52.212;9.540;2023-04-24T06:20:53;2.20;;;1.98;;
75135;SDS011;63707;52.212;9.540;2023-04-24T06:23:18;3.72;;;2.10;;
75135;SDS011;63707;52.212;9.540;2023-04-24T06:25:43;4.45;;;2.35;;
75135;SDS011;63707;52.212;9.540;2023-04-24T06:28:10;4.95;;;2.28;;
75135;SDS011;63707;52.212;9.540;2023-04-24T06:30:35;4.18;;;2.00;;
75135;SDS011;63707;52.212;9.540;2023-04-24T06:33:00;7.75;;;2.25;;
75135;SDS011;63707;52.212;9.540;2023-04-24T06:35:26;6.65;;;3.47;;
75135;SDS011;63707;52.212;9.540;2023-04-24T06:37:51;6.07;;;4.40;;
75135;SDS011;63707;52.212;9.540;2023-04-24T06:40:16;7.68;;;4.90;;
75135;SDS011;63707;52.212;9.540;2023-04-24T06:42:43;10.75;;;6.72;;
75135;SDS011;63707;52.212;9.540;2023-04-24T06:45:10;9.50;;;6.32;;
75135;SDS011;63707;52.212;9.540;2023-04-24T06:47:36;11.85;;;6.75;;
75135;SDS011;63707;52.212;9.540;2023-04-24T06:50:01;11.48;;;6.82;;
75135;SDS011;63707;52.212;9.540;2023-04-24T06:52:26;11.13;;;6.25;;
75135;SDS011;63707;52.212;9.540;2023-04-24T06:54:52;11.68;;;6.70;;
75135;SDS011;63707;52.212;9.540;2023-04-24T06:57:17;9.15;;;6.22;;
75135;SDS011;63707;52.212;9.540;2023-04-24T06:59:42;10.20;;;6.50;;
75135;SDS011;63707;52.212;9.540;2023-04-24T07:02:09;12.45;;;7.45;;
75135;SDS011;63707;52.212;9.540;2023-04-24T07:04:34;10.65;;;7.40;;
75135;SDS011;63707;52.212;9.540;2023-04-24T07:06:59;12.00;;;7.35;;
75135;SDS011;63707;52.212;9.540;2023-04-24T07:09:26;12.73;;;7.25;;
75135;SDS011;63707;52.212;9.540;2023-04-24T07:11:51;11.65;;;6.50;;
75135;SDS011;63707;52.212;9.540;2023-04-24T07:14:17;11.00;;;6.85;;
75135;SDS011;63707;52.212;9.540;2023-04-24T07:16:42;10.52;;;7.20;;
75135;SDS011;63707;52.212;9.540;2023-04-24T07:19:09;9.25;;;6.40;;
75135;SDS011;63707;52.212;9.540;2023-04-24T07:21:34;9.52;;;6.72;;
75135;SDS011;63707;52.212;9.540;2023-04-24T07:23:59;8.93;;;7.13;;
75135;SDS011;63707;52.212;9.540;2023-04-24T07:26:25;9.13;;;6.40;;
75135;SDS011;63707;52.212;9.540;2023-04-24T07:28:50;11.48;;;7.47;;
75135;SDS011;63707;52.212;9.540;2023-04-24T07:31:16;11.85;;;6.82;;
75135;SDS011;63707;52.212;9.540;2023-04-24T07:33:41;10.15;;;6.82;;
75135;SDS011;63707;52.212;9.540;2023-04-24T07:36:08;15.75;;;7.70;;
75135;SDS011;63707;52.212;9.540;2023-04-24T07:38:33;10.10;;;6.80;;
75135;SDS011;63707;52.212;9.540;2023-04-24T07:40:58;10.93;;;7.28;;
75135;SDS011;63707;52.212;9.540;2023-04-24T07:43:24;11.57;;;6.55;;
75135;SDS011;63707;52.212;9.540;2023-04-24T07:45:49;11.88;;;7.47;;
75135;SDS011;63707;52.212;9.540;2023-04-24T07:48:14;9.35;;;6.65;;
75135;SDS011;63707;52.212;9.540;2023-04-24T07:50:41;13.23;;;8.38;;
75135;SDS011;63707;52.212;9.540;2023-04-24T07:53:07;13.80;;;7.78;;
75135;SDS011;63707;52.212;9.540;2023-04-24T07:55:33;11.05;;;6.85;;
75135;SDS011;63707;52.212;9.540;2023-04-24T07:57:58;10.75;;;7.20;;
75135;SDS011;63707;52.212;9.540;2023-04-24T08:00:23;11.98;;;7.75;;
75135;SDS011;63707;52.212;9.540;2023-04-24T08:02:49;12.30;;;7.45;;
75135;SDS011;63707;52.212;9.540;2023-04-24T08:05:14;11.65;;;7.80;;
75135;SDS011;63707;52.212;9.540;2023-04-24T08:07:39;13.85;;;8.10;;
75135;SDS011;63707;52.212;9.540;2023-04-24T08:10:09;15.35;;;8.25;;
75135;SDS011;63707;52.212;9.540;2023-04-24T08:12:35;12.30;;;7.15;;
75135;SDS011;63707;52.212;9.540;2023-04-24T08:15:00;10.60;;;6.65;;
75135;SDS011;63707;52.212;9.540;2023-04-24T08:17:25;10.85;;;7.05;;
75135;SDS011;63707;52.212;9.540;2023-04-24T08:19:51;10.63;;;6.72;;
75135;SDS011;63707;52.212;9.540;2023-04-24T08:22:18;11.52;;;6.65;;
75135;SDS011;63707;52.212;9.540;2023-04-24T08:24:43;10.35;;;6.45;;
75135;SDS011;63707;52.212;9.540;2023-04-24T08:27:10;7.88;;;5.70;;
75135;SDS011;63707;52.212;9.540;2023-04-24T08:29:35;7.40;;;5.65;;
75135;SDS011;63707;52.212;9.540;2023-04-24T08:32:00;8.77;;;5.82;;
75135;SDS011;63707;52.212;9.540;2023-04-24T08:34:26;9.00;;;5.63;;
75135;SDS011;63707;52.212;9.540;2023-04-24T08:36:51;6.95;;;5.00;;
75135;SDS011;63707;52.212;9.540;2023-04-24T08:39:16;8.73;;;4.72;;
75135;SDS011;63707;52.212;9.540;2023-04-24T08:41:42;5.40;;;3.85;;
75135;SDS011;63707;52.212;9.540;2023-04-24T08:44:09;6.95;;;4.32;;
75135;SDS011;63707;52.212;9.540;2023-04-24T08:46:35;6.45;;;3.78;;
75135;SDS011;63707;52.212;9.540;2023-04-24T08:49:00;8.13;;;4.25;;
75135;SDS011;63707;52.212;9.540;2023-04-24T08:51:27;6.05;;;3.95;;
75135;SDS011;63707;52.212;9.540;2023-04-24T08:53:53;7.00;;;3.88;;
75135;SDS011;63707;52.212;9.540;2023-04-24T08:56:18;6.07;;;4.30;;
75135;SDS011;63707;52.212;9.540;2023-04-24T08:58:44;6.13;;;3.80;;
75135;SDS011;63707;52.212;9.540;2023-04-24T09:01:11;6.53;;;4.03;;
75135;SDS011;63707;52.212;9.540;2023-04-24T09:03:37;7.05;;;4.50;;
75135;SDS011;63707;52.212;9.540;2023-04-24T09:06:02;5.75;;;4.10;;
75135;SDS011;63707;52.212;9.540;2023-04-24T09:08:28;6.15;;;4.47;;
75135;SDS011;63707;52.212;9.540;2023-04-24T09:10:54;7.10;;;4.50;;
75135;SDS011;63707;52.212;9.540;2023-04-24T09:13:20;6.97;;;4.57;;
75135;SDS011;63707;52.212;9.540;2023-04-24T09:15:45;5.18;;;4.32;;
75135;SDS011;63707;52.212;9.540;2023-04-24T09:18:12;7.35;;;4.70;;
75135;SDS011;63707;52.212;9.540;2023-04-24T09:23:17;6.57;;;4.05;;
75135;SDS011;63707;52.212;9.540;2023-04-24T09:25:43;5.47;;;4.22;;
75135;SDS011;63707;52.212;9.540;2023-04-24T09:28:08;5.80;;;4.20;;
75135;SDS011;63707;52.212;9.540;2023-04-24T09:30:33;6.10;;;4.55;;
75135;SDS011;63707;52.212;9.540;2023-04-24T09:33:13;6.85;;;4.60;;
75135;SDS011;63707;52.212;9.540;2023-04-24T09:35:40;5.88;;;4.53;;
75135;SDS011;63707;52.212;9.540;2023-04-24T09:38:05;8.15;;;5.18;;
75135;SDS011;63707;52.212;9.540;2023-04-24T09:40:30;6.30;;;4.60;;
75135;SDS011;63707;52.212;9.540;2023-04-24T09:42:59;6.40;;;4.60;;
75135;SDS011;63707;52.212;9.540;2023-04-24T09:45:27;7.07;;;5.38;;
75135;SDS011;63707;52.212;9.540;2023-04-24T09:47:52;6.32;;;4.78;;
75135;SDS011;63707;52.212;9.540;2023-04-24T09:50:20;6.25;;;2.90;;
75135;SDS011;63707;52.212;9.540;2023-04-24T09:52:47;3.88;;;2.50;;
75135;SDS011;63707;52.212;9.540;2023-04-24T09:57:49;4.63;;;2.70;;
75135;SDS011;63707;52.212;9.540;2023-04-24T10:00:17;8.82;;;3.35;;
75135;SDS011;63707;52.212;9.540;2023-04-24T10:02:42;4.63;;;3.10;;
75135;SDS011;63707;52.212;9.540;2023-04-24T10:05:09;5.07;;;2.97;;
75135;SDS011;63707;52.212;9.540;2023-04-24T10:07:38;5.28;;;3.30;;
75135;SDS011;63707;52.212;9.540;2023-04-24T10:10:04;4.57;;;2.80;;
75135;SDS011;63707;52.212;9.540;2023-04-24T10:12:30;4.40;;;2.80;;
75135;SDS011;63707;52.212;9.540;2023-04-24T10:14:55;4.28;;;2.97;;
75135;SDS011;63707;52.212;9.540;2023-04-24T10:17:21;4.35;;;2.78;;
75135;SDS011;63707;52.212;9.540;2023-04-24T10:19:46;5.38;;;3.00;;
75135;SDS011;63707;52.212;9.540;2023-04-24T10:22:12;3.92;;;3.00;;
75135;SDS011;63707;52.212;9.540;2023-04-24T10:24:39;4.35;;;2.90;;
75135;SDS011;63707;52.212;9.540;2023-04-24T10:27:05;6.05;;;3.10;;
75135;SDS011;63707;52.212;9.540;2023-04-24T10:29:31;4.30;;;2.78;;
75135;SDS011;63707;52.212;9.540;2023-04-24T10:31:56;5.75;;;2.92;;
75135;SDS011;63707;52.212;9.540;2023-04-24T10:34:21;4.47;;;2.50;;
75135;SDS011;63707;52.212;9.540;2023-04-24T10:36:48;3.60;;;2.50;;
75135;SDS011;63707;52.212;9.540;2023-04-24T10:39:15;4.22;;;2.35;;
75135;SDS011;63707;52.212;9.540;2023-04-24T10:41:44;5.78;;;2.28;;
75135;SDS011;63707;52.212;9.540;2023-04-24T10:44:10;3.22;;;2.15;;
75135;SDS011;63707;52.212;9.540;2023-04-24T10:46:36;3.85;;;2.47;;
75135;SDS011;63707;52.212;9.540;2023-04-24T10:49:03;4.57;;;2.53;;
75135;SDS011;63707;52.212;9.540;2023-04-24T10:51:43;2.95;;;2.15;;
75135;SDS011;63707;52.212;9.540;2023-04-24T10:54:21;3.90;;;2.83;;
75135;SDS011;63707;52.212;9.540;2023-04-24T10:56:48;3.72;;;2.60;;
75135;SDS011;63707;52.212;9.540;2023-04-24T10:59:21;4.28;;;2.30;;
75135;SDS011;63707;52.212;9.540;2023-04-24T11:01:52;3.28;;;2.28;;
75135;SDS011;63707;52.212;9.540;2023-04-24T11:04:21;4.03;;;2.30;;
75135;SDS011;63707;52.212;9.540;2023-04-24T11:06:53;3.53;;;1.80;;
75135;SDS011;63707;52.212;9.540;2023-04-24T11:09:19;2.58;;;1.77;;
75135;SDS011;63707;52.212;9.540;2023-04-24T11:11:46;2.42;;;1.70;;
75135;SDS011;63707;52.212;9.540;2023-04-24T11:14:13;2.05;;;1.50;;
75135;SDS011;63707;52.212;9.540;2023-04-24T11:16:42;1.70;;;1.50;;
75135;SDS011;63707;52.212;9.540;2023-04-24T11:19:08;2.70;;;1.20;;
75135;SDS011;63707;52.212;9.540;2023-04-24T11:21:40;2.08;;;1.25;;
75135;SDS011;63707;52.212;9.540;2023-04-24T11:27:06;2.85;;;1.27;;
75135;SDS011;63707;52.212;9.540;2023-04-24T11:29:42;2.70;;;1.33;;
75135;SDS011;63707;52.212;9.540;2023-04-24T11:32:15;1.73;;;1.20;;
75135;SDS011;63707;52.212;9.540;2023-04-24T11:34:45;1.20;;;1.10;;
75135;SDS011;63707;52.212;9.540;2023-04-24T11:37:10;1.45;;;1.20;;
75135;SDS011;63707;52.212;9.540;2023-04-24T11:39:36;1.45;;;1.10;;
75135;SDS011;63707;52.212;9.540;2023-04-24T11:42:02;2.00;;;1.45;;
75135;SDS011;63707;52.212;9.540;2023-04-24T11:44:27;1.50;;;1.00;;
75135;SDS011;63707;52.212;9.540;2023-04-24T11:46:55;2.72;;;0.90;;
75135;SDS011;63707;52.212;9.540;2023-04-24T11:49:21;1.42;;;1.20;;
75135;SDS011;63707;52.212;9.540;2023-04-24T11:51:46;2.60;;;1.50;;
75135;SDS011;63707;52.212;9.540;2023-04-24T11:54:11;2.35;;;1.02;;
75135;SDS011;63707;52.212;9.540;2023-04-24T11:56:37;1.63;;;1.33;;
75135;SDS011;63707;52.212;9.540;2023-04-24T11:59:03;3.80;;;1.30;;
75135;SDS011;63707;52.212;9.540;2023-04-24T12:01:29;1.75;;;1.13;;
75135;SDS011;63707;52.212;9.540;2023-04-24T12:03:59;3.03;;;1.10;;
75135;SDS011;63707;52.212;9.540;2023-04-24T12:06:25;0.77;;;0.77;;
75135;SDS011;63707;52.212;9.540;2023-04-24T12:08:50;1.27;;;0.98;;
75135;SDS011;63707;52.212;9.540;2023-04-24T12:11:17;1.58;;;0.90;;
75135;SDS011;63707;52.212;9.540;2023-04-24T12:13:43;0.77;;;0.70;;
75135;SDS011;63707;52.212;9.540;2023-04-24T12:16:09;2.20;;;0.80;;
75135;SDS011;63707;52.212;9.540;2023-04-24T12:18:34;0.90;;;0.90;;
75135;SDS011;63707;52.212;9.540;2023-04-24T12:23:55;1.02;;;0.80;;
75135;SDS011;63707;52.212;9.540;2023-04-24T12:26:20;1.85;;;1.27;;
75135;SDS011;63707;52.212;9.540;2023-04-24T12:28:48;1.58;;;1.30;;
75135;SDS011;63707;52.212;9.540;2023-04-24T12:31:14;1.40;;;1.17;;
75135;SDS011;63707;52.212;9.540;2023-04-24T12:33:41;1.67;;;1.50;;
75135;SDS011;63707;52.212;9.540;2023-04-24T12:36:09;2.13;;;1.60;;
75135;SDS011;63707;52.212;9.540;2023-04-24T12:38:35;3.40;;;1.40;;
75135;SDS011;63707;52.212;9.540;2023-04-24T12:41:07;1.73;;;1.40;;
75135;SDS011;63707;52.212;9.540;2023-04-24T12:43:34;2.45;;;1.48;;
75135;SDS011;63707;52.212;9.540;2023-04-24T12:46:00;1.60;;;1.30;;
75135;SDS011;63707;52.212;9.540;2023-04-24T12:48:25;3.30;;;1.35;;
75135;SDS011;63707;52.212;9.540;2023-04-24T12:50:51;2.00;;;1.80;;
75135;SDS011;63707;52.212;9.540;2023-04-24T12:53:17;3.83;;;2.03;;
75135;SDS011;63707;52.212;9.540;2023-04-24T12:55:42;2.55;;;2.13;;
75135;SDS011;63707;52.212;9.540;2023-04-24T12:58:11;2.17;;;1.98;;
75135;SDS011;63707;52.212;9.540;2023-04-24T13:00:36;2.58;;;1.80;;
75135;SDS011;63707;52.212;9.540;2023-04-24T13:03:03;2.65;;;1.65;;
75135;SDS011;63707;52.212;9.540;2023-04-24T13:05:29;2.13;;;1.67;;
75135;SDS011;63707;52.212;9.540;2023-04-24T13:07:55;1.85;;;1.65;;
75135;SDS011;63707;52.212;9.540;2023-04-24T13:10:22;1.85;;;1.50;;
75135;SDS011;63707;52.212;9.540;2023-04-24T13:12:47;2.00;;;1.70;;
75135;SDS011;63707;52.212;9.540;2023-04-24T13:15:14;2.53;;;1.20;;
75135;SDS011;63707;52.212;9.540;2023-04-24T13:17:40;1.13;;;1.00;;
75135;SDS011;63707;52.212;9.540;2023-04-24T13:20:06;1.30;;;0.90;;
75135;SDS011;63707;52.212;9.540;2023-04-24T13:22:32;1.98;;;0.80;;
75135;SDS011;63707;52.212;9.540;2023-04-24T13:24:57;1.17;;;0.90;;
75135;SDS011;63707;52.212;9.540;2023-04-24T13:27:23;1.17;;;0.65;;
75135;SDS011;63707;52.212;9.540;2023-04-24T13:29:48;0.75;;;0.52;;
75135;SDS011;63707;52.212;9.540;2023-04-24T13:32:15;0.57;;;0.50;;
75135;SDS011;63707;52.212;9.540;2023-04-24T13:34:42;0.60;;;0.60;;
75135;SDS011;63707;52.212;9.540;2023-04-24T13:37:08;0.70;;;0.70;;
75135;SDS011;63707;52.212;9.540;2023-04-24T13:39:33;1.10;;;0.60;;
75135;SDS011;63707;52.212;9.540;2023-04-24T13:41:59;1.02;;;0.70;;
75135;SDS011;63707;52.212;9.540;2023-04-24T13:44:24;1.05;;;0.70;;
75135;SDS011;63707;52.212;9.540;2023-04-24T13:46:51;0.93;;;0.50;;
75135;SDS011;63707;52.212;9.540;2023-04-24T13:49:20;0.50;;;0.47;;
75135;SDS011;63707;52.212;9.540;2023-04-24T13:51:46;0.80;;;0.60;;
75135;SDS011;63707;52.212;9.540;2023-04-24T13:54:12;0.85;;;0.60;;
75135;SDS011;63707;52.212;9.540;2023-04-24T13:56:38;1.13;;;0.80;;
75135;SDS011;63707;52.212;9.540;2023-04-24T13:59:04;2.58;;;0.98;;
75135;SDS011;63707;52.212;9.540;2023-04-24T14:01:30;1.75;;;1.00;;
75135;SDS011;63707;52.212;9.540;2023-04-24T14:03:56;2.15;;;1.15;;
75135;SDS011;63707;52.212;9.540;2023-04-24T14:06:23;2.60;;;1.20;;
75135;SDS011;63707;52.212;9.540;2023-04-24T14:08:49;1.90;;;1.23;;
75135;SDS011;63707;52.212;9.540;2023-04-24T14:11:15;2.40;;;1.40;;
75135;SDS011;63707;52.212;9.540;2023-04-24T14:13:41;2.25;;;1.52;;
75135;SDS011;63707;52.212;9.540;2023-04-24T14:16:07;4.82;;;1.90;;
75135;SDS011;63707;52.212;9.540;2023-04-24T14:18:33;3.72;;;2.00;;
75135;SDS011;63707;52.212;9.540;2023-04-24T14:20:59;4.32;;;2.25;;
75135;SDS011;63707;52.212;9.540;2023-04-24T14:23:27;3.75;;;2.40;;
75135;SDS011;63707;52.212;9.540;2023-04-24T14:25:53;4.15;;;2.45;;
75135;SDS011;63707;52.212;9.540;2023-04-24T14:28:19;4.40;;;2.53;;
75135;SDS011;63707;52.212;9.540;2023-04-24T14:30:45;3.53;;;2.40;;
75135;SDS011;63707;52.212;9.540;2023-04-24T14:33:11;8.88;;;2.90;;
75135;SDS011;63707;52.212;9.540;2023-04-24T14:35:37;8.18;;;3.30;;
75135;SDS011;63707;52.212;9.540;2023-04-24T14:38:03;4.90;;;2.65;;
75135;SDS011;63707;52.212;9.540;2023-04-24T14:40:30;5.38;;;2.90;;
75135;SDS011;63707;52.212;9.540;2023-04-24T14:42:57;4.22;;;2.50;;
75135;SDS011;63707;52.212;9.540;2023-04-24T14:45:23;4.20;;;2.63;;
75135;SDS011;63707;52.212;9.540;2023-04-24T14:47:48;4.65;;;3.20;;
75135;SDS011;63707;52.212;9.540;2023-04-24T14:50:14;6.55;;;3.35;;